West Woodward Airport
KWWR : rendu visible

Aérodrome :











RETROUVEZ-NOUS SUR...

 
LOGIN :

S'inscrire | Disclaimer

   EN    FR    IT 

 









Légende :    VFR   VFR Marginal   IFR   IFR Intensif   IFR Très Intensif
Visi : 
Plafond : 
>= 8 km
>= 3000ft
5 à 8 km
1000 à 3000 ft
1500m à 5 km
500 à 1000 ft
800 à 1500m
200 à 500 ft
< 800m
< 200 ft
Symboles :   Orages  Brouillard  Fortes neiges  Fortes précipitations  Vent > 20 kt






- Altitude de l'aérodrome : 2189 ft


KWWR - West Woodward

DERNIER METAR :
  • 100655Z AUTO 00000KT 10SM BKN095 BKN120 M02/M08 A3021 RMK AO2

METARs EXPIRÉS :
  • 100635Z AUTO 00000KT 10SM SCT095 BKN120 M02/M08 A3021 RMK AO2
  • 100615Z AUTO 00000KT 10SM SCT120 M03/M08 A3021 RMK AO2
  • 100555Z AUTO 00000KT 10SM SCT120 M02/M08 A3021 RMK AO2
  • 100535Z AUTO 00000KT 10SM CLR M01/M09 A3021 RMK AO2
  • 100515Z AUTO 00000KT 10SM SCT100 M01/M08 A3021 RMK AO2
  • 100455Z AUTO 00000KT 10SM BKN100 BKN120 M01/M08 A3021 RMK AO2
  • 100435Z AUTO 00000KT 10SM OVC110 00/M08 A3021 RMK AO2
  • 100415Z AUTO 00000KT 10SM BKN100 OVC120 00/M08 A3020 RMK AO2

TAF KWWR
Valide du 10 à 06h jusqu'au 11 à 06h UTC


100520Z 1006/1106 07005KT P6SM BKN100
FM101200 21008KT P6SM SCT100



MET'MAP, la Météo Aéronautique d'un coup d'oeil ! - Copyright ORBIFLY Décembre 2007 - Disclaimer

ORBIFLY MET'MAP TEAM :

Programmation & Développement : Alexandra Zaïnal
Sur une idée originale de : Baudouin d'Aumeries
Assistance à la programmation : Marc-Olivier Méhu
Soutien technique & logistique : Manuel Goepfert

Contact : metmap@orbifly.com




SOURCES & CREDITS :

   NOAA       Earth
Advisory